Plato Center, Illinois
Current Conditions -  °F | °C
As of 9:52 AM on Friday 31 Oct 2014 (Local Time) from KDPA Reporting Station
Overcast Overcast  
Wind Chill: 26°   Ceiling: 3200
Heat Index: 38°   Visibility: 10mi
Dew Point: 27°   Wind: 26mph
Humidity: 65%   Direction: 340°NNW
Pressure: 30.15"   Gusts: 39mph
Location:  42.03°N, 88.43°W
Report Text: KDPA 311452Z 34023G34KT 10SM BKN032 OVC039 03/M03 A3015 RMK AO2 PK WND 34034/1449 SLP215 60000 T00331028 51018
Loading
Personal Weather Stations






























Interactive Weather Map
Tropical Storm Tracking
New forecast layout! Learn more

10-Day Weather Forecast

Advertisements
Track Severe Weather on mobile